createdAt,value
2022-11-16T00:01:02.653Z,6.37
2022-11-16T00:02:04.795Z,7.00
2022-11-16T00:03:07.965Z,6.90
2022-11-16T00:04:12.360Z,8.23
2022-11-16T00:05:14.873Z,6.90
2022-11-16T00:06:18.574Z,7.43
2022-11-16T00:07:20.646Z,6.40
2022-11-16T00:08:23.758Z,6.17
2022-11-16T00:09:28.644Z,5.77
2022-11-16T00:10:31.751Z,6.87
2022-11-16T00:11:34.273Z,6.47
2022-11-16T00:12:37.287Z,7.00
2022-11-16T00:13:40.425Z,6.00
2022-11-16T00:14:43.497Z,7.40
2022-11-16T00:15:56.037Z,6.80
2022-11-16T00:16:59.772Z,7.33
2022-11-16T00:18:01.813Z,6.80
2022-11-16T00:19:07.249Z,6.77
2022-11-16T00:20:10.426Z,6.93
2022-11-16T00:21:13.473Z,8.43
2022-11-16T00:22:15.725Z,6.53
2022-11-16T00:23:19.115Z,6.60
2022-11-16T00:24:23.650Z,7.43
2022-11-16T00:25:25.721Z,6.90
2022-11-16T00:26:28.890Z,7.77
2022-11-16T00:27:30.963Z,7.37
2022-11-16T00:28:35.076Z,7.97
2022-11-16T00:29:37.390Z,7.37
2022-11-16T00:30:40.490Z,6.30
2022-11-16T00:31:44.509Z,6.93
2022-11-16T00:32:47.538Z,6.80
2022-11-16T00:33:50.596Z,7.87
2022-11-16T00:34:53.626Z,7.53
2022-11-16T00:35:56.014Z,7.07
2022-11-16T00:36:59.140Z,6.67
2022-11-16T00:38:01.410Z,5.67
2022-11-16T00:39:04.584Z,7.20
2022-11-16T00:40:08.150Z,6.80
2022-11-16T00:41:11.263Z,6.03
2022-11-16T00:42:13.332Z,5.83
2022-11-16T00:43:16.442Z,5.80
2022-11-16T00:44:18.866Z,4.30
2022-11-16T00:45:21.944Z,4.77
2022-11-16T00:46:24.155Z,4.63
2022-11-16T00:47:28.558Z,3.00
2022-11-16T00:48:30.849Z,3.27
2022-11-16T00:49:34.025Z,3.20
2022-11-16T00:50:36.456Z,2.40
2022-11-16T00:51:39.823Z,2.17
2022-11-16T00:52:42.753Z,1.93
2022-11-16T00:53:45.760Z,2.37
2022-11-16T00:54:48.416Z,1.97
2022-11-16T00:55:51.656Z,2.20
2022-11-16T00:56:55.393Z,1.50
2022-11-16T00:57:59.059Z,1.50
2022-11-16T00:59:01.320Z,1.67
2022-11-16T01:00:05.006Z,1.70
2022-11-16T01:01:11.352Z,1.70
2022-11-16T01:02:14.462Z,1.70
2022-11-16T01:03:18.120Z,1.50
2022-11-16T01:04:22.502Z,1.67
2022-11-16T01:05:24.713Z,1.50
2022-11-16T01:06:27.762Z,1.60
2022-11-16T01:07:29.857Z,1.93
2022-11-16T01:08:33.638Z,1.60
2022-11-16T01:09:36.204Z,1.70
2022-11-16T01:10:40.524Z,1.50
2022-11-16T01:12:04.063Z,1.40
2022-11-16T01:13:06.397Z,1.53
2022-11-16T01:14:09.509Z,1.70
2022-11-16T01:15:12.598Z,1.60
2022-11-16T01:16:16.105Z,1.90
2022-11-16T01:17:19.187Z,1.73
2022-11-16T01:18:22.608Z,1.60
2022-11-16T01:19:26.180Z,1.67
2022-11-16T01:20:30.552Z,1.60
2022-11-16T01:21:34.361Z,1.93
2022-11-16T01:22:36.835Z,1.50
2022-11-16T01:23:39.973Z,1.50
2022-11-16T01:24:42.215Z,1.70
2022-11-16T01:25:45.284Z,2.33
2022-11-16T01:26:47.429Z,1.70
2022-11-16T01:27:50.578Z,1.60
2022-11-16T01:29:13.233Z,1.70
2022-11-16T01:30:20.923Z,1.60
2022-11-16T01:31:33.235Z,1.70
2022-11-16T01:32:38.783Z,1.80
2022-11-16T01:33:42.853Z,1.53
2022-11-16T01:34:53.815Z,1.70
2022-11-16T01:36:02.345Z,1.70
2022-11-16T01:37:05.792Z,1.67
2022-11-16T01:38:11.326Z,1.60
2022-11-16T01:39:14.791Z,1.63
2022-11-16T01:40:27.939Z,1.60
2022-11-16T01:41:31.211Z,1.47
2022-11-16T01:42:36.009Z,1.70
2022-11-16T01:43:56.005Z,1.40
2022-11-16T01:45:06.074Z,1.70
2022-11-16T01:46:09.572Z,1.57
2022-11-16T01:47:13.663Z,1.90
2022-11-16T01:48:21.488Z,1.73
2022-11-16T01:49:27.667Z,1.60
2022-11-16T01:50:32.565Z,1.70
2022-11-16T01:51:35.221Z,1.80
2022-11-16T01:52:46.076Z,1.90
2022-11-16T01:53:48.629Z,1.57
2022-11-16T01:54:54.472Z,2.00
2022-11-16T01:55:57.411Z,1.63
2022-11-16T01:57:23.306Z,1.60
2022-11-16T01:58:39.205Z,1.60
2022-11-16T02:00:00.675Z,1.60
2022-11-16T02:01:15.771Z,1.80
2022-11-16T02:02:24.208Z,1.83
2022-11-16T02:03:27.032Z,1.90
2022-11-16T02:04:33.003Z,1.63
2022-11-16T02:05:49.009Z,1.40
2022-11-16T02:07:01.297Z,1.70
2022-11-16T02:08:38.081Z,1.40
2022-11-16T02:09:58.861Z,1.70
2022-11-16T02:11:21.144Z,1.50
2022-11-16T02:12:49.766Z,1.60
2022-11-16T02:14:08.162Z,1.60
2022-11-16T02:15:20.669Z,1.40
2022-11-16T02:16:38.667Z,1.30
2022-11-16T02:17:48.602Z,1.70
2022-11-16T02:19:07.810Z,1.40
2022-11-16T02:20:33.568Z,1.27
2022-11-16T02:21:42.057Z,1.43
2022-11-16T02:22:59.381Z,1.40
2022-11-16T02:24:29.814Z,1.43
2022-11-16T02:25:40.374Z,1.57
2022-11-16T02:27:12.664Z,1.50
2022-11-16T02:28:32.648Z,1.50
2022-11-16T02:29:39.813Z,1.40
2022-11-16T02:30:47.850Z,1.60
2022-11-16T02:31:55.664Z,1.40
2022-11-16T02:33:02.613Z,1.33
2022-11-16T02:34:07.948Z,1.43
2022-11-16T02:35:17.635Z,1.57
2022-11-16T02:36:23.561Z,1.50
2022-11-16T02:37:30.002Z,1.50
2022-11-16T02:38:37.187Z,1.40
2022-11-16T02:39:44.296Z,1.60
2022-11-16T02:40:51.221Z,1.37
2022-11-16T02:41:59.331Z,1.50
2022-11-16T02:43:08.208Z,1.70
2022-11-16T02:44:15.294Z,1.67
2022-11-16T02:45:23.364Z,1.37
2022-11-16T02:46:29.982Z,1.57
2022-11-16T02:47:36.243Z,1.57
2022-11-16T02:48:43.492Z,1.60
2022-11-16T02:49:49.505Z,1.93
2022-11-16T02:50:53.148Z,1.40
2022-11-16T02:51:57.343Z,1.33
2022-11-16T02:53:01.598Z,1.40
2022-11-16T02:54:12.629Z,1.20
2022-11-16T02:55:18.038Z,1.30
2022-11-16T02:56:20.782Z,1.30
2022-11-16T02:57:37.013Z,1.50
2022-11-16T02:58:39.497Z,1.07
2022-11-16T02:59:45.418Z,1.40
2022-11-16T03:00:55.411Z,1.10
2022-11-16T03:02:10.340Z,1.20
2022-11-16T03:03:20.927Z,1.63
2022-11-16T03:04:28.472Z,1.33
2022-11-16T03:05:33.785Z,1.20
2022-11-16T03:06:43.629Z,1.10
2022-11-16T03:07:49.792Z,1.10
2022-11-16T03:08:58.292Z,1.20
2022-11-16T03:10:01.302Z,1.20
2022-11-16T03:11:25.359Z,1.00
2022-11-16T03:12:36.502Z,1.30
2022-11-16T03:13:40.388Z,1.10
2022-11-16T03:14:49.637Z,1.10
2022-11-16T03:15:56.038Z,1.00
2022-11-16T03:17:01.823Z,0.97
2022-11-16T03:18:07.979Z,1.23
2022-11-16T03:19:14.165Z,1.10
2022-11-16T03:20:20.651Z,1.20
2022-11-16T03:21:28.592Z,1.20
2022-11-16T03:22:35.309Z,1.20
2022-11-16T03:23:39.240Z,1.07
2022-11-16T03:24:42.036Z,1.17
2022-11-16T03:25:51.576Z,1.20
2022-11-16T03:27:01.865Z,1.10
2022-11-16T03:28:11.103Z,1.00
2022-11-16T03:29:20.585Z,0.97
2022-11-16T03:30:30.016Z,0.90
2022-11-16T03:31:43.225Z,1.10
2022-11-16T03:32:54.954Z,0.90
2022-11-16T03:34:03.826Z,1.00
2022-11-16T03:35:13.123Z,1.10
2022-11-16T03:36:21.720Z,0.70
2022-11-16T03:37:25.985Z,0.93
2022-11-16T03:38:29.852Z,0.80
2022-11-16T03:39:38.206Z,0.90
2022-11-16T03:40:43.220Z,0.90
2022-11-16T03:41:47.853Z,0.90
2022-11-16T03:42:51.028Z,1.00
2022-11-16T03:43:56.031Z,1.07
2022-11-16T03:45:01.567Z,1.10
2022-11-16T03:46:05.809Z,0.90
2022-11-16T03:47:09.626Z,0.97
2022-11-16T03:48:13.229Z,0.90
2022-11-16T03:49:16.125Z,0.80
2022-11-16T03:50:20.001Z,0.90
2022-11-16T03:51:22.265Z,1.07
2022-11-16T03:52:25.710Z,1.07
2022-11-16T03:53:27.873Z,0.97
2022-11-16T03:54:31.149Z,0.90
2022-11-16T03:55:34.757Z,0.97
2022-11-16T03:56:37.967Z,1.00
2022-11-16T03:57:40.069Z,1.07
2022-11-16T03:58:43.186Z,1.10
2022-11-16T03:59:45.885Z,0.90
2022-11-16T04:00:50.224Z,1.00
2022-11-16T04:01:52.580Z,0.70
2022-11-16T04:02:58.053Z,0.90
2022-11-16T04:04:00.129Z,0.97
2022-11-16T04:05:21.052Z,1.00
2022-11-16T04:06:41.642Z,1.10
2022-11-16T04:08:02.396Z,0.90
2022-11-16T04:09:22.771Z,0.83
2022-11-16T04:10:43.162Z,0.90
2022-11-16T04:12:03.979Z,0.90
2022-11-16T04:13:27.354Z,0.93
2022-11-16T04:14:48.142Z,0.83
2022-11-16T04:16:11.925Z,0.90
2022-11-16T04:17:34.146Z,1.00
2022-11-16T04:18:56.074Z,0.90
2022-11-16T04:20:17.208Z,0.90
2022-11-16T04:21:41.713Z,0.90
2022-11-16T04:23:07.560Z,1.13
2022-11-16T04:24:13.181Z,1.03
2022-11-16T04:25:21.940Z,0.97
2022-11-16T04:26:45.021Z,1.10
2022-11-16T04:28:07.017Z,1.00
2022-11-16T04:29:14.867Z,1.10
2022-11-16T04:30:17.986Z,1.13
2022-11-16T04:31:38.770Z,0.90
2022-11-16T04:33:02.705Z,0.83
2022-11-16T04:34:33.434Z,1.10
2022-11-16T04:35:54.137Z,1.00
2022-11-16T04:37:14.751Z,1.13
2022-11-16T04:38:17.962Z,1.13
2022-11-16T04:39:20.379Z,1.00
2022-11-16T04:40:26.459Z,1.10
2022-11-16T04:41:48.407Z,1.30
2022-11-16T04:42:53.217Z,1.03
2022-11-16T04:43:55.342Z,1.27
2022-11-16T04:45:15.016Z,1.40
2022-11-16T04:46:43.073Z,0.97
2022-11-16T04:47:46.145Z,1.30
2022-11-16T04:48:48.410Z,1.27
2022-11-16T04:49:53.340Z,1.27
2022-11-16T04:50:57.281Z,1.10
2022-11-16T04:52:00.187Z,1.23
2022-11-16T04:53:06.696Z,1.00
2022-11-16T04:54:15.405Z,1.40
2022-11-16T04:55:18.716Z,1.30
2022-11-16T04:56:21.876Z,1.30
2022-11-16T04:57:25.027Z,1.30
2022-11-16T04:58:27.111Z,1.30
2022-11-16T04:59:30.381Z,1.40
2022-11-16T05:00:32.951Z,1.57
2022-11-16T05:01:54.744Z,1.33
2022-11-16T05:03:01.242Z,1.67
2022-11-16T05:04:04.795Z,1.17
2022-11-16T05:05:10.308Z,1.23
2022-11-16T05:06:15.362Z,1.50
2022-11-16T05:07:19.032Z,1.43
2022-11-16T05:08:21.861Z,1.63
2022-11-16T05:09:27.089Z,1.30
2022-11-16T05:10:29.165Z,1.37
2022-11-16T05:11:32.234Z,1.93
2022-11-16T05:12:35.417Z,1.60
2022-11-16T05:13:41.336Z,1.37
2022-11-16T05:14:43.793Z,1.50
2022-11-16T05:15:47.641Z,1.40
2022-11-16T05:16:49.649Z,1.50
2022-11-16T05:17:54.866Z,1.40
2022-11-16T05:19:18.682Z,1.50
2022-11-16T05:20:40.500Z,1.63
2022-11-16T05:21:43.546Z,1.27
2022-11-16T05:22:52.817Z,1.40
2022-11-16T05:24:13.505Z,1.27
2022-11-16T05:25:16.591Z,1.50
2022-11-16T05:26:18.666Z,1.60
2022-11-16T05:27:24.652Z,1.23
2022-11-16T05:28:26.741Z,1.33
2022-11-16T05:29:30.079Z,1.50
2022-11-16T05:30:32.666Z,1.47
2022-11-16T05:31:40.481Z,1.57
2022-11-16T05:32:43.813Z,1.40
2022-11-16T05:33:47.582Z,1.50
2022-11-16T05:34:50.748Z,1.60
2022-11-16T05:35:55.550Z,1.50
2022-11-16T05:36:58.116Z,1.60
2022-11-16T05:38:01.164Z,1.40
2022-11-16T05:39:04.464Z,1.63
2022-11-16T05:40:12.008Z,1.50
2022-11-16T05:41:25.954Z,1.60
2022-11-16T05:42:29.790Z,1.73
2022-11-16T05:43:32.979Z,1.57
2022-11-16T05:44:44.729Z,1.33
2022-11-16T05:45:46.797Z,1.53
2022-11-16T05:46:52.254Z,1.50
2022-11-16T05:47:55.047Z,1.67
2022-11-16T05:48:58.191Z,1.70
2022-11-16T05:50:02.049Z,1.50
2022-11-16T05:51:09.973Z,1.50
2022-11-16T05:52:13.020Z,1.37
2022-11-16T05:53:15.820Z,1.50
2022-11-16T05:54:21.195Z,1.40
2022-11-16T05:55:23.255Z,1.27
2022-11-16T05:56:26.320Z,1.50
2022-11-16T05:57:30.607Z,1.30
2022-11-16T05:58:33.179Z,1.60
2022-11-16T05:59:36.883Z,1.60
2022-11-16T06:00:39.888Z,1.40
2022-11-16T06:01:45.563Z,1.80
2022-11-16T06:02:48.695Z,1.33
2022-11-16T06:03:59.764Z,1.77
2022-11-16T06:05:03.069Z,1.50
2022-11-16T06:06:05.740Z,1.30
2022-11-16T06:07:10.280Z,1.50
2022-11-16T06:08:12.651Z,1.47
2022-11-16T06:09:15.869Z,1.40
2022-11-16T06:10:18.012Z,1.70
2022-11-16T06:11:24.167Z,1.67
2022-11-16T06:12:26.300Z,1.37
2022-11-16T06:13:30.134Z,1.30
2022-11-16T06:14:33.763Z,1.57
2022-11-16T06:15:38.328Z,1.47
2022-11-16T06:16:41.712Z,1.53
2022-11-16T06:17:45.926Z,1.70
2022-11-16T06:18:49.734Z,1.60
2022-11-16T06:19:53.478Z,1.40
2022-11-16T06:20:56.041Z,1.60
2022-11-16T06:21:59.098Z,1.50
2022-11-16T06:23:04.447Z,1.20
2022-11-16T06:24:09.478Z,1.50
2022-11-16T06:25:12.042Z,1.90
2022-11-16T06:26:18.605Z,1.67
2022-11-16T06:27:22.570Z,1.30
2022-11-16T06:28:25.826Z,1.60
2022-11-16T06:29:29.653Z,1.60
2022-11-16T06:30:32.600Z,1.43
2022-11-16T06:31:35.662Z,1.20
2022-11-16T06:32:38.560Z,1.50
2022-11-16T06:33:42.633Z,1.40
2022-11-16T06:34:51.625Z,1.60
2022-11-16T06:35:55.191Z,1.60
2022-11-16T06:36:59.526Z,1.40
2022-11-16T06:38:04.752Z,1.50
2022-11-16T06:39:06.967Z,1.80
2022-11-16T06:40:13.343Z,1.67
2022-11-16T06:41:18.832Z,1.80
2022-11-16T06:42:25.157Z,2.00
2022-11-16T06:43:28.960Z,1.73
2022-11-16T06:44:32.429Z,1.63
2022-11-16T06:45:38.757Z,1.43
2022-11-16T06:46:41.870Z,2.03
2022-11-16T06:47:43.969Z,1.80
2022-11-16T06:48:47.717Z,1.40
2022-11-16T06:49:49.896Z,1.50
2022-11-16T06:50:57.445Z,1.63
2022-11-16T06:51:59.866Z,1.43
2022-11-16T06:53:03.151Z,1.50
2022-11-16T06:54:07.912Z,1.53
2022-11-16T06:55:10.190Z,1.40
2022-11-16T06:56:16.015Z,1.73
2022-11-16T06:57:23.402Z,1.60
2022-11-16T06:58:26.730Z,1.60
2022-11-16T06:59:28.839Z,1.50
2022-11-16T07:00:32.348Z,1.90
2022-11-16T07:01:34.513Z,1.37
2022-11-16T07:02:42.421Z,1.20
2022-11-16T07:03:49.127Z,1.80
2022-11-16T07:04:51.710Z,1.47
2022-11-16T07:05:55.280Z,1.50
2022-11-16T07:06:57.425Z,1.33
2022-11-16T07:08:00.663Z,1.30
2022-11-16T07:09:08.223Z,1.53
2022-11-16T07:10:10.681Z,1.30
2022-11-16T07:11:13.747Z,1.67
2022-11-16T07:12:15.860Z,1.50
2022-11-16T07:13:19.773Z,1.60
2022-11-16T07:14:21.950Z,1.90
2022-11-16T07:15:25.513Z,1.57
2022-11-16T07:16:27.617Z,1.30
2022-11-16T07:17:35.233Z,1.53
2022-11-16T07:18:40.586Z,1.73
2022-11-16T07:19:42.760Z,1.70
2022-11-16T07:20:46.632Z,1.80
2022-11-16T07:21:48.739Z,1.33
2022-11-16T07:22:54.827Z,2.00
2022-11-16T07:23:58.194Z,1.30
2022-11-16T07:25:01.679Z,1.37
2022-11-16T07:26:06.281Z,1.47
2022-11-16T07:27:18.431Z,1.37
2022-11-16T07:28:24.228Z,1.53
2022-11-16T07:29:27.526Z,1.50
2022-11-16T07:30:48.990Z,1.90
2022-11-16T07:31:57.601Z,1.80
2022-11-16T07:33:20.753Z,1.80
2022-11-16T07:34:44.450Z,1.43
2022-11-16T07:35:51.086Z,1.33
2022-11-16T07:36:53.462Z,1.50
2022-11-16T07:37:56.485Z,1.53
2022-11-16T07:38:58.641Z,1.10
2022-11-16T07:40:03.205Z,1.33
2022-11-16T07:41:08.802Z,1.30
2022-11-16T07:42:13.597Z,1.60
2022-11-16T07:43:53.360Z,1.80
2022-11-16T07:45:00.074Z,1.73
2022-11-16T07:47:27.471Z,1.60
2022-11-16T07:48:32.040Z,1.60
2022-11-16T07:49:53.577Z,1.20
2022-11-16T07:51:03.497Z,1.30
2022-11-16T07:52:10.459Z,1.70
2022-11-16T07:53:24.630Z,1.60
2022-11-16T07:54:27.019Z,1.53
2022-11-16T07:55:33.249Z,1.70
2022-11-16T07:56:36.944Z,1.50
2022-11-16T07:57:40.196Z,1.33
2022-11-16T07:58:44.176Z,1.43
2022-11-16T07:59:47.291Z,1.63
2022-11-16T08:00:49.536Z,1.50
2022-11-16T08:01:52.798Z,1.50
2022-11-16T08:02:57.768Z,1.50
2022-11-16T08:04:01.713Z,1.63
2022-11-16T08:05:06.072Z,1.67
2022-11-16T08:06:13.262Z,2.00
2022-11-16T08:07:16.618Z,1.30
2022-11-16T08:08:27.313Z,1.53
2022-11-16T08:09:29.381Z,1.83
2022-11-16T08:10:34.102Z,1.83
2022-11-16T08:11:38.015Z,1.57
2022-11-16T08:12:40.127Z,1.63
2022-11-16T08:13:44.149Z,1.70
2022-11-16T08:14:47.429Z,1.33
2022-11-16T08:15:50.314Z,1.43
2022-11-16T08:16:53.344Z,1.63
2022-11-16T08:17:58.717Z,1.67
2022-11-16T08:19:02.304Z,1.80
2022-11-16T08:20:06.277Z,1.70
2022-11-16T08:21:10.306Z,1.27
2022-11-16T08:22:14.291Z,1.60
2022-11-16T08:23:17.278Z,1.40
2022-11-16T08:24:20.324Z,1.23
2022-11-16T08:25:22.477Z,1.50
2022-11-16T08:26:27.532Z,1.27
2022-11-16T08:27:36.803Z,1.23
2022-11-16T08:28:38.920Z,1.33
2022-11-16T08:29:42.131Z,1.67
2022-11-16T08:30:50.976Z,1.40
2022-11-16T08:31:57.053Z,1.17
2022-11-16T08:32:59.255Z,1.50
2022-11-16T08:34:02.313Z,1.67
2022-11-16T08:35:07.092Z,1.30
2022-11-16T08:36:14.358Z,1.30
2022-11-16T08:37:18.621Z,1.60
2022-11-16T08:38:21.244Z,1.40
2022-11-16T08:39:25.756Z,1.40
2022-11-16T08:40:28.001Z,1.43
2022-11-16T08:41:32.825Z,1.93
2022-11-16T08:42:37.242Z,1.67
2022-11-16T08:43:46.514Z,1.40
2022-11-16T08:44:50.761Z,1.30
2022-11-16T08:45:55.953Z,1.37
2022-11-16T08:46:59.120Z,1.50
2022-11-16T08:48:22.740Z,1.43
2022-11-16T08:49:25.810Z,1.57
2022-11-16T08:50:27.961Z,1.40
2022-11-16T08:51:31.040Z,1.53
2022-11-16T08:52:39.529Z,1.60
2022-11-16T08:53:41.945Z,1.60
2022-11-16T08:54:45.108Z,1.80
2022-11-16T08:55:47.271Z,1.57
2022-11-16T08:56:51.783Z,1.73
2022-11-16T08:57:55.415Z,1.70
2022-11-16T08:58:59.978Z,1.73
2022-11-16T09:00:04.749Z,1.67
2022-11-16T09:01:09.967Z,1.80
2022-11-16T09:02:13.175Z,1.60
2022-11-16T09:03:15.261Z,1.40
2022-11-16T09:04:18.721Z,1.97
2022-11-16T09:05:20.893Z,2.17
2022-11-16T09:06:25.246Z,1.77
2022-11-16T09:07:27.369Z,1.50
2022-11-16T09:08:30.681Z,2.00
2022-11-16T09:09:32.892Z,1.40
2022-11-16T09:10:35.989Z,2.33
2022-11-16T09:11:39.260Z,2.20
2022-11-16T09:12:42.807Z,1.90
2022-11-16T09:13:47.423Z,1.30
2022-11-16T09:14:51.031Z,1.60
2022-11-16T09:15:57.327Z,1.60
2022-11-16T09:17:00.372Z,1.60
2022-11-16T09:18:03.467Z,1.80
2022-11-16T09:19:05.568Z,1.63
2022-11-16T09:20:09.757Z,1.60
2022-11-16T09:21:12.782Z,1.93
2022-11-16T09:22:14.856Z,1.47
2022-11-16T09:23:23.760Z,1.57
2022-11-16T09:24:27.285Z,1.83
2022-11-16T09:25:30.366Z,1.60
2022-11-16T09:26:33.456Z,1.73
2022-11-16T09:27:35.577Z,1.47
2022-11-16T09:28:40.086Z,1.47
2022-11-16T09:29:43.238Z,1.83
2022-11-16T09:30:46.435Z,1.90
2022-11-16T09:31:49.509Z,1.90
2022-11-16T09:32:51.524Z,1.60
2022-11-16T09:33:56.118Z,1.20
2022-11-16T09:34:58.332Z,1.60
2022-11-16T09:36:07.539Z,1.77
2022-11-16T09:37:10.593Z,1.50
2022-11-16T09:38:19.092Z,1.37
2022-11-16T09:39:31.117Z,1.57
2022-11-16T09:40:36.473Z,1.30
2022-11-16T09:41:56.825Z,1.47
2022-11-16T09:43:07.265Z,1.80
2022-11-16T09:44:25.150Z,1.33
2022-11-16T09:45:36.264Z,1.23
2022-11-16T09:46:43.785Z,1.63
2022-11-16T09:47:49.558Z,1.57
2022-11-16T09:48:53.611Z,1.57
2022-11-16T09:50:03.671Z,1.70
2022-11-16T09:51:13.235Z,1.83
2022-11-16T09:52:24.593Z,1.53
2022-11-16T09:53:34.601Z,1.53
2022-11-16T09:54:41.195Z,1.27
2022-11-16T09:55:49.982Z,1.50
2022-11-16T09:56:57.999Z,1.50
2022-11-16T09:58:03.284Z,1.73
2022-11-16T09:59:18.112Z,1.40
2022-11-16T10:00:22.870Z,1.50
2022-11-16T10:01:29.417Z,1.57
2022-11-16T10:02:37.267Z,1.60
2022-11-16T10:03:46.361Z,1.37
2022-11-16T10:04:57.916Z,1.63
2022-11-16T10:06:03.305Z,1.50
2022-11-16T10:07:13.889Z,1.50
2022-11-16T10:08:25.225Z,1.33
2022-11-16T10:09:28.953Z,1.57
2022-11-16T10:10:37.011Z,1.40
2022-11-16T10:11:51.389Z,1.50
2022-11-16T10:13:00.568Z,1.50
2022-11-16T10:14:26.711Z,1.50
2022-11-16T10:15:42.500Z,1.60
2022-11-16T10:16:53.092Z,1.50
2022-11-16T10:18:08.028Z,1.50
2022-11-16T10:19:22.123Z,1.50
2022-11-16T10:20:46.238Z,1.90
2022-11-16T10:21:58.202Z,1.60
2022-11-16T10:23:10.262Z,1.53
2022-11-16T10:24:31.676Z,1.30
2022-11-16T10:25:41.375Z,1.47
2022-11-16T10:26:53.701Z,1.60
2022-11-16T10:28:24.286Z,1.50
2022-11-16T10:29:41.963Z,1.40
2022-11-16T10:30:54.660Z,1.67
2022-11-16T10:32:15.284Z,2.00
2022-11-16T10:33:22.976Z,2.30
2022-11-16T10:34:27.953Z,1.70
2022-11-16T10:35:35.057Z,1.90
2022-11-16T10:36:38.515Z,1.53
2022-11-16T10:37:46.225Z,1.80
2022-11-16T10:38:48.726Z,1.83
2022-11-16T10:39:54.123Z,1.83
2022-11-16T10:41:02.648Z,1.40
2022-11-16T10:42:12.387Z,1.47
2022-11-16T10:43:17.749Z,1.63
2022-11-16T10:44:30.156Z,1.60
2022-11-16T10:45:40.266Z,1.90
2022-11-16T10:46:46.901Z,1.60
2022-11-16T10:47:54.547Z,1.70
2022-11-16T10:49:05.601Z,1.60
2022-11-16T10:50:32.741Z,1.50
2022-11-16T10:51:35.781Z,1.63
2022-11-16T10:52:37.853Z,1.70
2022-11-16T10:53:43.741Z,1.63
2022-11-16T10:54:45.875Z,1.63
2022-11-16T10:56:01.756Z,1.70
2022-11-16T10:57:08.816Z,1.40
2022-11-16T10:58:11.927Z,1.60
2022-11-16T10:59:19.009Z,2.10
2022-11-16T11:00:36.571Z,1.50
2022-11-16T11:01:41.504Z,1.93
2022-11-16T11:02:48.869Z,1.80
2022-11-16T11:03:51.882Z,1.73
2022-11-16T11:05:03.805Z,1.50
2022-11-16T11:06:13.757Z,1.37
2022-11-16T11:07:24.485Z,1.73
2022-11-16T11:08:30.489Z,1.70
2022-11-16T11:09:35.567Z,1.83
2022-11-16T11:10:43.569Z,1.30
2022-11-16T11:12:16.565Z,1.77
2022-11-16T11:13:26.145Z,1.90
2022-11-16T11:14:28.225Z,1.50
2022-11-16T11:15:31.265Z,1.30
2022-11-16T11:16:34.795Z,1.47
2022-11-16T11:17:40.217Z,1.50
2022-11-16T11:18:42.420Z,1.50
2022-11-16T11:19:45.449Z,1.53
2022-11-16T11:20:51.267Z,1.53
2022-11-16T11:21:57.253Z,1.43
2022-11-16T11:23:04.278Z,1.50
2022-11-16T11:24:43.247Z,1.60
2022-11-16T11:25:43.448Z,1.30
2022-11-16T11:26:52.960Z,1.87
2022-11-16T11:28:05.501Z,1.73
2022-11-16T11:29:21.370Z,1.60
2022-11-16T11:30:25.080Z,1.80
2022-11-16T11:31:33.839Z,1.40
2022-11-16T11:32:41.562Z,1.57
2022-11-16T11:33:50.212Z,1.80
2022-11-16T11:34:55.313Z,1.67
2022-11-16T11:36:02.405Z,1.80
2022-11-16T11:37:07.654Z,1.90
2022-11-16T11:38:15.383Z,2.60
2022-11-16T11:39:33.594Z,2.60
2022-11-16T11:40:36.271Z,1.80
2022-11-16T11:41:42.339Z,1.90
2022-11-16T11:42:52.974Z,1.80
2022-11-16T11:44:04.219Z,1.57
2022-11-16T11:45:13.042Z,2.07
2022-11-16T11:46:34.648Z,1.40
2022-11-16T11:47:59.541Z,1.50
2022-11-16T11:49:11.999Z,1.60
2022-11-16T11:50:16.915Z,1.40
2022-11-16T11:51:26.354Z,1.50
2022-11-16T11:52:35.707Z,1.27
2022-11-16T11:53:46.511Z,1.67
2022-11-16T11:54:51.623Z,1.20
2022-11-16T11:55:58.219Z,2.23
2022-11-16T11:57:03.983Z,2.13
2022-11-16T11:58:12.332Z,1.90
2022-11-16T11:59:21.654Z,1.50
2022-11-16T12:00:26.059Z,1.60
2022-11-16T12:01:56.285Z,1.40
2022-11-16T12:03:27.989Z,1.77
2022-11-16T12:05:09.147Z,1.77
2022-11-16T12:06:20.357Z,1.40
2022-11-16T12:07:37.914Z,1.40
2022-11-16T12:09:02.140Z,1.40
2022-11-16T12:10:14.940Z,1.30
2022-11-16T12:11:26.358Z,1.80
2022-11-16T12:12:41.943Z,1.70
2022-11-16T12:14:04.906Z,1.30
2022-11-16T12:15:30.601Z,1.80
2022-11-16T12:16:40.171Z,1.60
2022-11-16T12:17:50.325Z,1.50
2022-11-16T12:19:09.599Z,1.43
2022-11-16T12:20:21.839Z,1.90
2022-11-16T12:21:38.598Z,1.67
2022-11-16T12:23:04.930Z,1.50
2022-11-16T12:24:21.242Z,1.87
2022-11-16T12:25:29.539Z,2.03
2022-11-16T12:26:38.759Z,1.50
2022-11-16T12:27:51.492Z,1.27
2022-11-16T12:29:05.846Z,1.10
2022-11-16T12:30:11.349Z,1.33
2022-11-16T12:31:45.057Z,1.33
2022-11-16T12:32:58.535Z,1.30
2022-11-16T12:34:15.765Z,1.50
2022-11-16T12:35:39.960Z,1.70
2022-11-16T12:36:55.658Z,2.20
2022-11-16T12:38:05.519Z,2.70
2022-11-16T12:39:23.523Z,2.20
2022-11-16T12:40:42.923Z,1.57
2022-11-16T12:42:05.344Z,1.47
2022-11-16T12:43:17.732Z,1.83
2022-11-16T12:44:27.184Z,1.70
2022-11-16T12:45:44.133Z,1.50
2022-11-16T12:46:56.757Z,1.20
2022-11-16T12:48:13.605Z,1.43
2022-11-16T12:49:52.368Z,2.40
2022-11-16T12:51:00.612Z,1.90
2022-11-16T12:52:16.813Z,2.20
2022-11-16T12:53:38.073Z,1.90
2022-11-16T12:55:28.234Z,1.67
2022-11-16T12:56:45.931Z,2.00
2022-11-16T12:58:04.966Z,2.00
2022-11-16T12:59:26.359Z,2.10
2022-11-16T13:00:33.232Z,1.50
2022-11-16T13:01:41.221Z,1.67
2022-11-16T13:03:10.057Z,2.00
2022-11-16T13:04:17.101Z,1.10
2022-11-16T13:05:23.321Z,1.47
2022-11-16T13:06:32.011Z,1.50
2022-11-16T13:07:44.677Z,1.30
2022-11-16T13:09:02.715Z,1.83
2022-11-16T13:10:13.524Z,1.30
2022-11-16T13:11:21.369Z,3.20
2022-11-16T13:12:26.198Z,1.40
2022-11-16T13:13:37.419Z,1.50
2022-11-16T13:14:43.377Z,1.73
2022-11-16T13:15:47.853Z,1.30
2022-11-16T13:16:52.265Z,3.20
2022-11-16T13:17:57.777Z,2.63
2022-11-16T13:19:01.825Z,3.10
2022-11-16T13:20:25.796Z,3.67
2022-11-16T13:21:41.526Z,2.37
2022-11-16T13:22:53.148Z,2.00
2022-11-16T13:24:23.117Z,1.53
2022-11-16T13:25:32.695Z,1.50
2022-11-16T13:26:43.877Z,1.57
2022-11-16T13:27:50.766Z,1.60
2022-11-16T13:29:01.159Z,1.97
2022-11-16T13:30:14.700Z,1.83
2022-11-16T13:31:21.538Z,1.40
2022-11-16T13:32:35.572Z,1.70
2022-11-16T13:33:50.658Z,1.70
2022-11-16T13:34:55.032Z,4.67
2022-11-16T13:35:58.449Z,2.50
2022-11-16T13:37:01.499Z,3.50
2022-11-16T13:38:03.620Z,2.77
2022-11-16T13:39:08.228Z,1.60
2022-11-16T13:40:27.078Z,1.47
2022-11-16T13:41:34.737Z,1.80
2022-11-16T13:42:45.052Z,1.80
2022-11-16T13:43:50.391Z,1.93
2022-11-16T13:44:54.923Z,2.10
2022-11-16T13:46:00.036Z,1.70
2022-11-16T13:47:05.321Z,1.50
2022-11-16T13:48:17.686Z,1.70
2022-11-16T13:49:24.066Z,1.60
2022-11-16T13:50:37.811Z,1.80
2022-11-16T13:51:52.673Z,1.80
2022-11-16T13:54:46.642Z,1.80
2022-11-16T13:55:56.370Z,1.87
2022-11-16T13:57:00.089Z,1.40
2022-11-16T13:58:06.015Z,1.20
2022-11-16T13:59:15.373Z,1.53
2022-11-16T14:00:24.220Z,1.30
2022-11-16T14:01:46.342Z,1.33
2022-11-16T14:02:49.471Z,1.70
2022-11-16T14:03:53.390Z,1.20
2022-11-16T14:04:58.476Z,1.23
2022-11-16T14:06:01.542Z,1.48
2022-11-16T14:07:05.091Z,1.30
2022-11-16T14:08:46.604Z,1.63
2022-11-16T14:09:50.296Z,1.40
2022-11-16T14:11:02.837Z,1.75
2022-11-16T14:12:39.115Z,1.80
2022-11-16T14:13:44.154Z,1.13
2022-11-16T14:15:11.807Z,1.48
2022-11-16T14:16:54.175Z,1.33
2022-11-16T14:17:59.828Z,1.20
2022-11-16T14:19:04.277Z,1.23
2022-11-16T14:20:12.781Z,1.50
2022-11-16T14:21:24.524Z,1.30
2022-11-16T14:22:58.820Z,1.20
2022-11-16T14:24:13.768Z,1.40
2022-11-16T14:25:29.273Z,1.40
2022-11-16T14:26:45.233Z,1.50
2022-11-16T14:27:55.495Z,1.33
2022-11-16T14:29:25.276Z,1.23
2022-11-16T14:30:33.844Z,1.33
2022-11-16T14:31:49.651Z,1.27
2022-11-16T14:32:53.832Z,1.20
2022-11-16T14:33:59.516Z,1.30
2022-11-16T14:35:04.845Z,1.10
2022-11-16T14:36:10.406Z,1.30
2022-11-16T14:37:15.642Z,1.30
2022-11-16T14:38:30.812Z,1.47
2022-11-16T14:39:38.365Z,1.37
2022-11-16T14:40:46.272Z,1.30
2022-11-16T14:41:49.298Z,1.40
2022-11-16T14:44:21.847Z,1.63
2022-11-16T14:45:27.286Z,1.50
2022-11-16T14:46:34.335Z,1.53
2022-11-16T14:47:38.042Z,1.37
2022-11-16T14:48:44.410Z,1.70
2022-11-16T14:49:48.914Z,1.30
2022-11-16T14:51:01.699Z,1.40
2022-11-16T14:52:08.216Z,1.70
2022-11-16T14:53:15.176Z,1.40
2022-11-16T14:54:28.328Z,1.43
2022-11-16T14:55:30.458Z,2.37
2022-11-16T14:56:33.522Z,1.30
2022-11-16T14:57:35.992Z,1.60
2022-11-16T14:58:39.853Z,1.43
2022-11-16T14:59:41.871Z,1.33
2022-11-16T15:00:54.739Z,1.73
2022-11-16T15:01:58.253Z,1.93
2022-11-16T15:03:02.937Z,1.50
2022-11-16T15:04:09.713Z,1.70
2022-11-16T15:05:16.750Z,1.50
2022-11-16T15:06:20.445Z,1.30
2022-11-16T15:07:25.063Z,1.50
2022-11-16T15:08:34.094Z,1.40
2022-11-16T15:09:41.709Z,1.20
2022-11-16T15:10:51.008Z,1.40
2022-11-16T15:12:13.937Z,1.77
2022-11-16T15:13:20.002Z,1.50